Weather observations for the past three days for
Pampa, Perry Lefors Field Airport
Metric (Imperial)
Date Time (cdt) Wind (kph) Vis. (km) Weather Sky Cond. Temperature (ºC) Relative Humidity Wind Chill (°C) Heat Index (°C) Pressure Precipitation (cm)
Air Dwpt 6 hour altimeter (cm) sea level (mb) 1 hr 3 hr 6 hr
Max. Min.
31 12:30 SW 26 G 31 16.09 Fair CLR 34.7 15.2 31% 34 76.45 0.0
31 12:10 SW 22 G 31 16.09 Fair CLR 34.2 15.7 33% 34 76.45 0.0
31 11:50 SW 26 16.09 Fair CLR 33.7 15.6 34% 34 76.48 0.0
31 11:30 SW 24 G 35 16.09 Fair CLR 33.1 15.6 35% 33 76.48 0.0
31 11:10 SW 24 16.09 Fair CLR 32.5 15.4 36% 32 76.45 0.0
31 10:50 SW 30 G 43 16.09 Fair CLR 32.1 15.3 36% 32 76.45 0.0
31 10:30 SW 30 G 39 16.09 Fair CLR 31.9 15.2 36% 32 76.45 0.0
31 10:10 SW 22 16.09 Fair CLR 31.1 14.8 37% 31 76.45 0.0
31 09:50 SW 22 16.09 Fair CLR 30.5 14.6 38% 30 76.45 0.0
31 09:30 SW 22 16.09 Fair CLR 29.3 14.4 40% 29 76.45 0.0
31 09:10 S 22 16.09 Fair CLR 27.8 14.5 44% 28 76.45 0.0
31 08:50 S 22 16.09 Fair CLR 26.3 14.5 48% 27 76.45 0.0
31 08:30 S 19 16.09 Fair CLR 24.7 14.8 54% 26 76.45 0.0
31 08:10 S 13 16.09 Fair CLR 23.3 15 60% 76.43 0.0
31 07:50 S 13 16.09 Fair CLR 21.9 15 65% 76.4 0.0
31 07:30 S 7 16.09 Fair CLR 21.1 14.7 67% 76.38 0.0
31 07:10 S 13 16.09 Fair CLR 20.5 14.5 69% 76.38 0.0
31 06:50 S 9 16.09 Fair CLR 21 14.5 28 21 67% 76.35 0.0
31 06:30 S 11 16.09 Fair CLR 21.7 14.5 64% 76.33 0.0
31 06:10 S 15 16.09 Fair CLR 22 14.5 63% 76.3 0.0
31 05:50 S 17 16.09 Fair CLR 21.8 14.6 64% 76.28 0.0
31 05:30 S 15 16.09 Fair CLR 22 14.6 63% 76.28 0.0
31 05:10 S 15 16.09 Fair CLR 22.3 14.5 61% 76.28 0.0
31 04:50 S 17 16.09 Fair CLR 22.6 14.5 60% 76.28 0.0
31 04:30 S 15 16.09 Fair CLR 23.1 14.3 58% 76.28 0.0
31 04:10 S 13 16.09 Fair CLR 24.5 14.2 53% 26 76.28 0.0
31 03:50 S 17 16.09 Fair CLR 25.1 14.1 51% 26 76.25 0.0
31 03:30 S 19 16.09 Fair CLR 25.5 14.1 49% 26 76.25 0.0
31 03:10 S 19 16.09 Fair CLR 25.7 14.1 49% 26 76.23 0.0
31 02:50 S 20 16.09 Fair CLR 26.3 14.1 47% 27 76.23 0.0
31 02:30 S 22 G 33 16.09 Fair CLR 26.6 14.1 46% 27 76.23 0.0
31 02:10 S 26 G 39 16.09 Fair CLR 27.1 14.1 45% 27 76.23 0.0
31 01:50 S 28 16.09 Fair CLR 27.4 14.1 44% 27 76.23 0.0
31 01:30 S 28 16.09 Fair CLR 27.7 14.1 43% 28 76.23 0.0
31 01:10 S 28 G 37 16.09 Fair CLR 28 14.1 43% 28 76.25 0.0
31 00:50 S 28 G 37 16.09 Fair CLR 28.2 14.1 36.3 28.2 42% 28 76.23 0.0
31 00:30 S 30 G 37 16.09 Fair CLR 28.4 14.1 42% 28 76.23 0.0
31 00:10 S 30 G 37 16.09 Fair CLR 28.5 14 41% 28 76.23 0.0
30 23:50 S 28 16.09 Fair CLR 28.6 13.6 40% 28 76.2 0.0
30 23:30 S 26 16.09 Fair CLR 28.8 13.5 39% 28 76.17 0.0
30 23:10 SE 28 16.09 Fair CLR 28.7 13.1 38% 28 76.17 0.0
30 22:50 SE 28 16.09 Fair CLR 29.4 13.1 37% 29 76.15 0.0
30 22:30 S 31 G 39 16.09 Fair CLR 30.5 13 34% 30 76.17 0.0
30 22:10 S 30 G 39 16.09 Fair CLR 30.6 13 34% 30 76.15 0.0
30 21:50 SE 31 G 37 16.09 Fair CLR 30.7 13 34% 30 76.15 0.0
30 21:30 SE 28 16.09 Fair CLR 31 13.1 33% 30 76.12 0.0
30 21:10 SE 26 16.09 Fair CLR 31.5 13 32% 31 76.1 0.0
30 20:50 SE 24 16.09 Fair CLR 32.1 12.8 31% 31 76.1 0.0
30 20:30 SE 24 16.09 Fair CLR 32.6 12.8 30% 32 76.1 0.0
30 20:10 SE 26 16.09 Fair CLR 33.5 12.8 28% 32 76.07 0.0
30 19:50 SE 26 16.09 Fair CLR 34.3 13 27% 33 76.07 0.0
30 19:30 S 26 G 33 16.09 Fair CLR 35.2 13.1 26% 34 76.07 0.0
30 19:10 SE 28 G 35 16.09 Fair CLR 36.2 13 25% 35 76.07 0.0
30 18:50 S 24 G 39 16.09 Fair CLR 36 12.8 39.8 36 25% 35 76.07 0.0
30 18:30 S 26 G 39 16.09 Fair CLR 36.5 12.2 23% 35 76.07 0.0
30 18:10 S 30 G 41 16.09 Fair CLR 36.9 12.1 22% 36 76.07 0.0
30 17:50 S 33 G 43 16.09 Fair and Breezy CLR 38.6 12 20% 37 76.07 0.0
30 17:30 S 26 G 44 16.09 Fair CLR 38.5 11.8 20% 37 76.07 0.0
30 17:10 S 26 G 37 16.09 Fair CLR 38.7 12 20% 38 76.07 0.0
30 16:50 S 28 G 46 16.09 Fair CLR 38.9 12.1 20% 38 76.07 0.0
30 16:30 S 24 G 41 16.09 Fair CLR 38.9 12.2 20% 38 76.1 0.0
30 16:10 S 26 G 41 16.09 Fair CLR 39.2 12.6 20% 38 76.1 0.0
30 15:50 S 30 G 41 16.09 Fair CLR 39 12.5 20% 38 76.12 0.0
30 15:30 S 24 G 41 16.09 Fair CLR 39 12.7 21% 38 76.15 0.0
30 15:10 SW 26 16.09 Fair CLR 39.2 13 21% 39 76.15 0.0
30 14:50 S 28 G 39 16.09 Fair CLR 38.5 13.3 22% 38 76.17 0.0
30 14:30 S 37 G 43 16.09 Fair and Breezy CLR 38.5 13.5 22% 38 76.17 0.0
30 14:10 S 24 G 43 16.09 Fair CLR 38.4 13.3 22% 38 76.2 0.0
30 13:50 S 31 G 43 16.09 Fair CLR 38 13.3 23% 37 76.2 0.0
30 13:30 S 35 G 46 16.09 Fair and Breezy CLR 37.8 13.5 23% 37 76.23 0.0
30 13:10 S 31 G 43 16.09 Fair CLR 37.7 14.1 24% 37 76.25 0.0
30 12:50 S 33 G 43 16.09 Fair and Breezy CLR 37.5 14.2 37.5 21.3 25% 37 76.25 0.0
30 12:30 S 37 G 44 16.09 Fair and Breezy CLR 37.5 14.1 25% 37 76.28 0.0
30 12:10 SW 31 G 43 16.09 Fair CLR 36.2 15 28% 36 76.28 0.0
30 11:50 SW 31 G 39 16.09 Fair CLR 35.8 16.1 31% 36 76.3 0.0
30 11:30 SW 31 G 41 16.09 Fair CLR 34.7 16.1 33% 35 76.3 0.0
30 11:10 SW 30 G 39 16.09 Fair CLR 34 16.3 35% 34 76.3 0.0
30 10:50 SW 30 G 48 16.09 Fair CLR 32.8 16.2 37% 33 76.3 0.0
30 10:30 SW 37 16.09 Fair and Breezy CLR 32 16.1 38% 32 76.3 0.0
30 10:10 SW 31 16.09 Fair CLR 31.5 16.1 39% 31 76.3 0.0
30 09:50 SW 31 G 41 16.09 Fair CLR 30.6 16 41% 31 76.3 0.0
30 09:30 SW 33 G 43 16.09 Fair and Breezy CLR 29.5 15.8 43% 30 76.3 0.0
30 09:10 SW 26 16.09 Fair CLR 28.6 15.6 45% 29 76.3 0.0
30 08:50 S 22 16.09 Fair CLR 27.6 15.5 48% 28 76.33 0.0
30 08:30 S 22 16.09 Fair CLR 26.5 15.3 50% 27 76.33 0.0
30 08:10 S 22 16.09 Fair CLR 25.1 15.2 54% 26 76.33 0.0
30 07:50 S 17 16.09 Fair CLR 24 15 57% 25 76.33 0.0
30 07:30 S 19 16.09 Fair CLR 23.5 14.7 58% 76.28 0.0
30 07:10 S 13 16.09 Fair CLR 21.5 14.6 65% 76.28 0.0
30 06:50 S 13 16.09 Fair CLR 21.6 14.5 28 21.6 64% 76.25 0.0
30 06:30 S 15 16.09 Fair CLR 22.2 14.2 61% 76.25 0.0
30 06:10 S 15 16.09 Fair CLR 22.2 14.2 61% 76.25 0.0
30 05:50 S 15 16.09 Fair CLR 22.8 14 58% 76.25 0.0
30 05:30 S 15 16.09 Fair CLR 23 14 57% 76.25 0.0
30 05:10 S 15 16.09 Fair CLR 23.3 13.6 55% 76.25 0.0
30 04:50 S 15 16.09 Fair CLR 23.8 13.4 52% 76.25 0.0
30 04:30 S 17 16.09 Fair CLR 23.6 13.3 53% 76.25 0.0
30 04:10 S 15 16.09 Fair CLR 23.6 13.3 53% 76.23 0.0
30 03:50 S 15 16.09 Fair CLR 24.2 13.1 50% 25 76.23 0.0
30 03:30 S 17 16.09 Fair CLR 24.6 13 49% 26 76.23 0.0
30 03:10 S 19 16.09 Fair CLR 25.1 13 47% 26 76.23 0.0
30 02:50 S 19 16.09 Fair CLR 25.2 12.8 46% 26 76.25 0.0
30 02:30 S 20 16.09 Fair CLR 25.9 12.7 44% 26 76.28 0.0
30 02:10 S 19 16.09 Fair CLR 26.4 12.5 42% 27 76.28 0.0
30 01:50 S 24 16.09 Fair CLR 27.5 12.1 38% 27 76.28 0.0
30 01:30 S 26 16.09 Fair CLR 27.7 12 38% 27 76.28 0.0
30 01:10 S 28 G 35 16.09 Fair CLR 27.9 12 37% 27 76.25 0.0
30 00:50 S 24 16.09 Fair CLR 28 12 36.2 28 37% 27 76.28 0.0
30 00:30 S 28 G 33 16.09 Fair CLR 28.3 12 36% 28 76.25 0.0
30 00:10 S 26 G 39 16.09 Fair CLR 28.9 12 35% 28 76.25 0.0
29 23:50 S 30 G 41 16.09 Fair CLR 29.2 12.1 35% 28 76.25 0.0
29 23:30 S 31 G 41 16.09 Fair CLR 29.5 12.3 35% 29 76.25 0.0
29 23:10 S 31 G 41 16.09 Fair CLR 30 12.5 34% 29 76.25 0.0
29 22:50 S 31 G 41 16.09 Fair CLR 30.1 12.8 35% 29 76.25 0.0
29 22:30 S 30 G 39 16.09 Fair CLR 30.3 13.1 35% 29 76.23 0.0
29 22:10 S 31 G 39 16.09 Fair CLR 30.7 13.2 34% 30 76.23 0.0
29 21:50 S 31 G 39 16.09 Fair CLR 31.1 13.4 34% 30 76.2 0.0
29 21:30 S 31 G 39 16.09 Fair CLR 31.4 13.6 34% 31 76.17 0.0
29 21:10 SE 30 G 39 16.09 Fair CLR 31.8 13.7 33% 31 76.17 0.0
29 20:50 S 28 G 37 16.09 Fair CLR 32.5 13.6 32% 32 76.15 0.0
29 20:30 S 31 G 39 16.09 Fair CLR 32.9 13.7 31% 32 76.12 0.0
29 20:10 S 30 G 41 16.09 Fair CLR 33.4 13.7 30% 33 76.12 0.0
29 19:50 S 30 G 43 16.09 Fair CLR 34.1 13.7 29% 33 76.12 0.0
29 19:30 S 30 G 43 16.09 Fair CLR 35 13.8 28% 34 76.12 0.0
29 19:10 S 33 G 43 16.09 Fair and Breezy CLR 35.6 13.9 27% 35 76.12 0.0
29 18:50 S 33 G 46 16.09 Fair and Breezy CLR 36.5 13.6 39.3 36.5 25% 36 76.1 0.0
29 18:30 S 26 G 43 16.09 Fair CLR 37.2 13.6 24% 37 76.12 0.0
29 18:10 S 35 G 44 16.09 Fair and Breezy CLR 37.5 13.8 24% 37 76.12 0.0
29 17:50 S 30 G 39 16.09 Fair CLR 38 13.5 23% 37 76.12 0.0
29 17:30 S 39 G 46 16.09 Fair and Breezy CLR 38.2 13.4 23% 38 76.15 0.0
29 17:10 S 30 G 46 16.09 Fair CLR 38.3 13.5 23% 38 76.17 0.0
29 16:50 S 33 G 43 16.09 Fair and Breezy CLR 38.6 13.9 23% 38 76.17 0.0
29 16:30 S 30 G 48 16.09 Fair CLR 38.5 13.9 23% 38 76.17 0.0
29 16:10 S 28 G 44 16.09 Fair CLR 38.8 13.9 23% 38 76.2 0.0
29 15:50 S 31 G 41 16.09 Fair CLR 39.1 14 22% 39 76.23 0.0
29 15:30 S 30 G 43 16.09 Fair CLR 39.3 13.9 22% 39 76.25 0.0
29 15:10 S 28 G 41 16.09 Fair CLR 38.5 13.6 23% 38 76.28 0.0
29 14:50 S 30 G 41 16.09 Fair CLR 38.4 13.8 23% 38 76.28 0.0
29 14:30 S 31 G 48 16.09 Fair CLR 37.9 14 24% 37 76.33 0.0
29 14:10 S 30 G 44 16.09 Fair CLR 38.3 14.2 24% 38 76.33 0.0
29 13:50 S 31 G 44 16.09 Fair CLR 37.5 14.4 25% 37 76.35 0.0
29 13:30 S 33 G 44 16.09 Fair and Breezy CLR 37.8 14.7 25% 38 76.38 0.0
29 13:10 S 26 G 46 16.09 Fair CLR 37.3 15 26% 37 76.4 0.0
29 12:50 S 31 G 41 16.09 Fair CLR 37 14.3 37.1 21.7 26% 37 76.43 0.0
29 12:30 S 31 G 43 16.09 Fair CLR 36.5 14 26% 36 76.45 0.0
29 12:10 S 26 G 39 16.09 Fair CLR 35.9 14.9 28% 36 76.45 0.0
29 11:50 SW 28 G 35 16.09 Fair CLR 35.5 15.8 31% 36 76.48 0.0
29 11:30 S 28 G 35 16.09 Fair CLR 34.1 16.2 34% 34 76.5 0.0
29 11:10 SW 22 16.09 Fair CLR 33.4 16.5 36% 34 76.5 0.0
29 10:50 SW 28 16.09 Fair CLR 32.7 16.4 38% 33 76.5 0.0
29 10:30 SW 28 16.09 Fair CLR 31.5 16.5 40% 32 76.5 0.0
29 10:10 SW 30 16.09 Fair CLR 31.9 16.4 39% 32 76.5 0.0
29 09:50 SW 35 G 46 16.09 Fair and Breezy CLR 31 16.5 42% 31 76.5 0.0
29 09:30 SW 28 G 43 16.09 Fair CLR 30.3 16.9 45% 31 76.5 0.0
29 09:10 SW 28 16.09 Fair CLR 29.2 17 48% 30 76.5 0.0
29 08:50 SW 30 16.09 Fair CLR 27.8 16.8 51% 28 76.5 0.0
29 08:30 SW 26 16.09 Fair CLR 26.7 16.9 55% 27 76.5 0.0
29 08:10 S 22 16.09 Fair CLR 25.5 16.8 59% 26 76.5 0.0
29 07:50 S 17 16.09 Fair CLR 23.7 16.7 65% 76.5 0.0
29 07:30 S 15 16.09 Fair CLR 22.5 16.4 69% 76.5 0.0
29 07:10 S 15 16.09 Fair CLR 21.7 16 70% 76.5 0.0
29 06:50 S 15 16.09 Fair CLR 22 15.6 26.5 22 67% 76.5 0.0
29 06:30 S 17 16.09 Fair CLR 22.3 15.2 64% 76.5 0.0
29 06:10 S 15 16.09 Fair CLR 22.4 15.1 63% 76.5 0.0
29 05:50 S 15 16.09 Fair CLR 22.3 15 63% 76.5 0.0
29 05:30 S 15 16.09 Fair CLR 22.8 14.7 60% 76.5 0.0
29 05:10 S 17 16.09 Fair CLR 23.1 14.6 59% 76.5 0.0
29 04:50 S 19 16.09 Fair CLR 23.6 14.4 56% 76.5 0.0
29 04:30 S 20 16.09 Fair CLR 23.8 14.1 55% 76.5 0.0
29 04:10 S 22 16.09 Fair CLR 24 13.9 53% 25 76.5 0.0
29 03:50 S 20 16.09 Fair CLR 24.5 13.7 51% 26 76.5 0.0
29 03:30 S 19 16.09 Fair CLR 24.5 13.5 50% 26 76.5 0.0
29 03:10 S 20 16.09 Fair CLR 25 13.2 48% 26 76.5 0.0
29 02:50 S 20 16.09 Fair CLR 25.1 13.2 48% 26 76.5 0.0
29 02:30 S 22 16.09 Fair CLR 25.5 13.2 47% 26 76.5 0.0
29 02:10 S 24 16.09 Fair CLR 25.7 13.2 46% 26 76.5 0.0
29 01:50 S 22 16.09 Fair CLR 25.8 13.2 46% 26 76.53 0.0
29 01:30 S 24 16.09 Fair CLR 26.3 13 44% 27 76.53 0.0
29 01:10 S 24 16.09 Fair CLR 26.4 12.9 43% 27 76.53 0.0
29 00:50 S 22 16.09 Fair CLR 26.4 13.1 33.8 26.4 44% 27 76.53 0.0
29 00:30 S 24 16.09 Fair CLR 26.5 13.3 44% 27 76.53 0.0
29 00:10 SE 26 16.09 Fair CLR 26.8 13.3 43% 27 76.53 0.0
28 23:50 SE 24 16.09 Fair CLR 27.1 13.4 43% 27 76.5 0.0
28 23:30 SE 24 16.09 Fair CLR 27.1 13.5 43% 27 76.5 0.0
28 23:10 SE 24 16.09 Fair CLR 27.1 13.7 44% 27 76.5 0.0
28 22:50 SE 24 16.09 Fair CLR 27.1 13.8 44% 27 76.53 0.0
28 22:30 SE 20 16.09 Fair CLR 27 14.1 45% 27 76.5 0.0
28 22:10 SE 20 16.09 Fair CLR 27.3 14.2 45% 27 76.5 0.0
28 21:50 SE 22 16.09 Fair CLR 27.8 14.1 43% 28 76.5 0.0
28 21:30 SE 22 16.09 Fair CLR 28.1 14.8 44% 28 76.48 0.0
28 21:10 SE 20 G 30 16.09 Fair CLR 28.3 15.4 45% 28 76.45 0.0
28 20:50 SE 20 16.09 Fair CLR 28.7 15.4 44% 29 76.45 0.0
28 20:30 SE 19 16.09 Fair CLR 29.3 13.8 39% 29 76.43 0.0
28 20:10 SE 17 16.09 Fair CLR 30.4 13.7 36% 30 76.43 0.0
28 19:50 SE 20 16.09 Fair CLR 31.4 13.8 34% 31 76.4 0.0
28 19:30 S 22 16.09 Fair CLR 32.7 13.1 30% 32 76.4 0.0
28 19:10 S 24 16.09 Fair CLR 33.5 12.9 29% 32 76.43 0.0
28 18:50 S 20 16.09 Fair CLR 33.9 12.9 35.5 32.5 28% 33 76.43 0.0
28 18:30 S 20 G 30 16.09 Fair CLR 34.3 13.6 29% 33 76.43 0.0
28 18:10 S 26 16.09 Fair CLR 34.8 13.9 28% 34 76.43 0.0
28 17:50 S 20 16.09 Fair CLR 34.8 14.6 30% 34 76.43 0.0
28 17:30 S 19 16.09 Fair CLR 35 14.4 29% 34 76.45 0.0
28 17:10 S 17 G 26 16.09 Fair CLR 35 14.6 29% 35 76.45 0.0
28 16:50 S 19 G 31 16.09 Fair CLR 35.1 15.2 30% 35 76.45 0.0
28 16:30 SE 19 G 26 16.09 Fair CLR 34.9 14.5 29% 34 76.5 0.0
28 16:10 S 13 16.09 Fair CLR 35.4 14.7 29% 35 76.53 0.0
28 15:50 S 19 G 30 16.09 Fair CLR 34.8 15 30% 34 76.56 0.0
28 15:30 S 24 16.09 Fair CLR 35 15.3 31% 35 76.58 0.0
28 15:10 S 20 G 28 16.09 Fair CLR 34.9 15.4 31% 35 76.58 0.0
28 14:50 SW 19 G 28 16.09 Fair CLR 34.4 15.1 31% 34 76.61 0.0
28 14:30 S 19 16.09 Fair CLR 34.5 15.6 32% 34 76.63 0.0
28 14:10 S 13 16.09 Fair CLR 34.1 14.6 31% 34 76.63 0.0
28 13:50 S 17 G 26 16.09 Fair CLR 34 15.4 33% 34 76.66 0.0
28 13:30 S 17 G 26 16.09 Fair CLR 33.2 15.4 34% 33 76.68 0.0
28 13:10 S 17 G 26 16.09 Fair CLR 32.9 16 36% 33 76.71 0.0
Date Time (cdt) Wind (kph) Vis. (km) Weather Sky Cond. Air Dwpt Max. Min. Relative Humidity Wind Chill (°C) Heat Index (°C) altimeter (cm) sea level (mb) 1 hr 3 hr 6 hr
6 hour
Temperature (ºC) Pressure Precipitation (cm)